Latest Conditions
At L.F.Wade Int. Airport
Recorded at 12:55 pm
Few Clouds
Temp.: 
30°C/87°F
Humidity: 
70%
Wind: 
SW 16KT
or 18mph
UV Index: 
12
Island Observations
Observations
Saturday, July 30, 2016

Observations are in local time and taken at least once an hour, or upon the start and end of specified events such as showers and thunderstorms.

Time Sky / Weather Wind Speed/Gusts Temp. R.H. Pressure
     knots (mph)  °C (°F)  %  mb / "Hg
 12:55 Few Clouds  SW 16/0 (18/0) 30(87) 70 1022 / 30.17
 11:55 Few Clouds  SW 16/0 (18/0) 30(87) 70 1022 / 30.17
 10:55 Few Clouds  SW 16/0 (18/0) 30(85) 72 1021 / 30.16
 09:55 Partly Cloudy Showers SW 15/0 (17/0) 29(85) 75 1022 / 30.17
 09:46 Partly Cloudy Showers SW 19/0 (22/0) 29(85) 74 1022 / 30.17
 08:55 Few Clouds  SW 16/0 (18/0) 29(84) 76 1021 / 30.16
 07:55 Partly Cloudy  SW 16/0 (18/0) 28(83) 78 1021 / 30.15
 06:55 Partly Cloudy  SW 15/0 (17/0) 28(82) 79 1020 / 30.13
 05:55 Few Clouds  SW 15/0 (17/0) 28(82) 79 1020 / 30.11
 04:55 Partly Cloudy  SW 15/0 (17/0) 28(82) 79 1020 / 30.11
 03:55 Partly Cloudy  SW 12/0 (14/0) 28(82) 81 1020 / 30.11
 03:31 Partly Cloudy Showers SW 14/0 (16/0) 27(81) 78 1020 / 30.11
 03:12 Partly Cloudy Showers SW 20/0 (23/0) 27(81) 77 1020 / 30.11
 02:55 Few Clouds Showers SW 15/0 (17/0) 28(82) 80 1020 / 30.11
 01:55 Partly Cloudy  SW 14/0 (16/0) 28(82) 82 1020 / 30.12
 00:55 Few Clouds Showers SW 15/0 (17/0) 27(80) 78 1020 / 30.13
 00:34 Partly Cloudy Showers SW 17/0 (20/0) 26(79) 83 1020 / 30.13
 00:22 Partly Cloudy Showers SW 20/0 (23/0) 27(81) 82 1020 / 30.13
 23:55 Few Clouds  SW 14/0 (16/0) 28(83) 80 1021 / 30.14
 22:55 Partly Cloudy  SW 15/0 (17/0) 28(83) 80 1020 / 30.13
 21:55 Partly Cloudy  SW 15/0 (17/0) 28(83) 79 1020 / 30.13
 20:55 Partly Cloudy  SW 14/0 (16/0) 29(83) 77 1019 / 30.10
 19:55 Partly Cloudy Showers SSW 12/0 (14/0) 29(84) 74 1019 / 30.10
 18:55 Mostly Cloudy Showers SSW 12/0 (14/0) 30(85) 74 1019 / 30.08
Observations from our AWOS sites are available here (password and username are both 'guest').